Current | Forecast
Updated: 12:00 PM +09 on March 29, 2017
Observed at Blagovescensk, Russia
Temperature 45°F
Windchill 39°F
Humidity 34%
Dew Point 18°F
Wind North at 11 mph
Pressure 30.01 in (Rising)
Conditions Partly Cloudy
Visibility 6.2 miles
UV 4 out of 16
Clouds (FEW) : 3300 ft
Yesterday's Maximum 48°F
Yesterday's Minimum 25°F approx.
Yesterday's Heating Degree Days 29 approx.
Sunrise6:09 AM +09
Sunset6:53 PM +09
Moon Rise6:57 AM +09
Moon Set8:17 PM +09
Moon PhaseMoon Phase
New Moon
Raw METARMETAR UHBB 290300Z 36005MPS 9999 FEW033 07/M08 Q1016 R36/090060 NOSIG RMK QFE744/0992


Monday
. High: 64° F.
Tuesday
. High: 53° F.
Wednesday
. High: 55° F.
Thursday
. High: 42° F.
Friday
. High: 48° F.
Saturday
. High: 50° F.
Sunday
. High: 57° F.
Monday
. High: 64° F.

Units: English | Metric

Find the Weather for any City, State or Zipcode, or Country:

U.S. State List | Severe Weather | Tropical Storms | Ski Conditions
United States | Canada | Central America | South America | Asia | Europe | Australia | Africa | Islands

Weather Underground

© Copyright 2017
The Weather Company, LLC